Time;durP1;ratioP1;P1;durP2;ratioP2;P2;SDS_P1;SDS_P2;PMS_P1;PMS_P2;Temp;Humidity;BMP_temperature;BMP_pressure;BME280_temperature;BME280_humidity;BME280_pressure;Samples;Min_cycle;Max_cycle;Signal;HPM_P1;HPM_P2
2021/07/18 00:01:16;;;;;;;9.32;3.03;;;20.50;84.20;;;;;;4940105;29;20172;-84
2021/07/18 00:03:51;;;;;;;9.70;3.60;;;20.40;84.10;;;;;;4945263;29;20112;-86
2021/07/18 00:06:22;;;;;;;8.38;3.22;;;20.40;84.10;;;;;;4930981;29;20074;-85
2021/07/18 00:08:48;;;;;;;6.43;2.95;;;20.30;84.10;;;;;;4930067;29;20032;-85
2021/07/18 00:11:14;;;;;;;8.30;2.95;;;20.40;84.20;;;;;;4943100;29;20055;-85
2021/07/18 00:13:39;;;;;;;8.18;3.10;;;20.30;84.00;;;;;;4927317;29;20038;-85
2021/07/18 00:16:10;;;;;;;6.57;3.05;;;20.30;84.10;;;;;;4926886;29;20035;-84
2021/07/18 00:18:38;;;;;;;7.18;3.10;;;20.30;84.00;;;;;;4939439;29;20024;-85
2021/07/18 00:21:18;;;;;;;8.98;3.38;;;20.20;84.00;;;;;;4922092;29;20040;-85
2021/07/18 00:24:02;;;;;;;;;;;;;;;;;;;;;
2021/07/18 00:26:33;;;;;;;5.93;2.85;;;20.10;84.00;;;;;;4937590;29;20042;-85
2021/07/18 00:29:25;;;;;;;;;;;;;;;;;;;;;
2021/07/18 00:39:47;;;;;;;;;;;;;;;;;;;;;
2021/07/18 01:07:53;;;;;;;;;;;;;;;;;;;;;
2021/07/18 01:10:22;;;;;;;6.28;2.60;;;19.40;84.00;;;;;;4872692;29;20035;-85
2021/07/18 01:12:52;;;;;;;5.88;2.42;;;19.30;84.00;;;;;;4957323;29;20035;-85
2021/07/18 01:15:18;;;;;;;6.45;2.53;;;19.30;84.10;;;;;;4940252;29;20035;-85
2021/07/18 01:17:53;;;;;;;5.75;2.40;;;19.20;84.10;;;;;;4957951;29;20487;-85
2021/07/18 01:20:22;;;;;;;4.80;2.35;;;19.20;84.00;;;;;;4957703;29;20094;-85
2021/07/18 01:22:55;;;;;;;7.63;2.75;;;19.20;84.10;;;;;;4960922;29;20031;-85
2021/07/18 01:25:28;;;;;;;4.97;2.40;;;19.20;84.10;;;;;;4963394;28;20038;-87
2021/07/18 01:28:40;;;;;;;;;;;;;;;;;;;;;
2021/07/18 01:31:28;;;;;;;7.28;2.30;;;19.10;84.00;;;;;;4958933;29;20037;-86
2021/07/18 01:33:59;;;;;;;6.03;2.63;;;19.10;84.30;;;;;;4939858;29;20050;-86
2021/07/18 01:37:05;;;;;;;7.30;2.30;;;19.00;83.90;;;;;;4938266;29;20027;-87
2021/07/18 01:39:59;;;;;;;;;;;;;;;;;;;;;
2021/07/18 01:42:32;;;;;;;8.07;2.55;;;18.90;84.00;;;;;;4956774;29;20041;-84
2021/07/18 01:44:57;;;;;;;8.85;2.40;;;18.90;83.90;;;;;;4939364;29;20447;-85
2021/07/18 01:47:23;;;;;;;6.30;2.55;;;18.90;84.00;;;;;;4957007;29;20019;-85
2021/07/18 01:50:32;;;;;;;6.57;2.30;;;18.80;83.90;;;;;;4956269;28;20102;-86
2021/07/18 01:53:18;;;;;;;5.53;2.30;;;18.70;83.90;;;;;;4919861;29;20091;-85
2021/07/18 01:55:44;;;;;;;10.35;2.55;;;18.70;83.90;;;;;;4920665;29;20055;-84
2021/07/18 01:58:10;;;;;;;5.18;2.33;;;18.70;83.90;;;;;;4937524;29;20024;-85
2021/07/18 02:00:38;;;;;;;4.93;2.15;;;18.60;83.90;;;;;;4920603;29;20036;-86
2021/07/18 02:03:14;;;;;;;;;;;;;;;;;;;;;
2021/07/18 02:05:51;;;;;;;5.95;2.20;;;18.60;84.00;;;;;;4937354;29;20051;-86
2021/07/18 02:08:20;;;;;;;6.35;2.38;;;18.50;84.00;;;;;;4920061;29;20563;-86
2021/07/18 02:10:51;;;;;;;7.53;2.33;;;18.50;84.00;;;;;;4904918;29;20031;-86
2021/07/18 02:20:55;;;;;;;8.40;2.78;;;18.40;84.00;;;;;;4937736;29;20042;-87
2021/07/18 02:23:50;;;;;;;8.05;2.30;;;18.30;84.00;;;;;;4916742;29;20043;-87
2021/07/18 02:26:30;;;;;;;6.72;2.40;;;18.30;84.00;;;;;;4922605;29;20048;-87
2021/07/18 02:29:20;;;;;;;6.55;2.70;;;18.30;84.10;;;;;;4920346;29;20047;-87
2021/07/18 02:32:35;;;;;;;;;;;;;;;;;;;;;
2021/07/18 02:39:02;;;;;;;5.38;2.20;;;18.20;84.30;;;;;;4859292;29;20389;-87
2021/07/18 02:42:15;;;;;;;5.82;2.17;;;18.10;84.10;;;;;;4840279;29;20042;-87
2021/07/18 02:45:34;;;;;;;5.85;2.40;;;18.00;84.10;;;;;;4906687;29;20035;-87
2021/07/18 02:48:03;;;;;;;6.80;2.30;;;17.90;84.00;;;;;;4938198;29;20040;-84
2021/07/18 02:50:29;;;;;;;4.65;2.10;;;17.90;84.10;;;;;;4941249;29;20148;-85
2021/07/18 02:52:56;;;;;;;5.45;2.58;;;17.90;84.10;;;;;;4924841;29;20035;-85
2021/07/18 02:55:24;;;;;;;7.70;2.30;;;17.80;84.00;;;;;;4938526;29;20036;-85
2021/07/18 02:57:53;;;;;;;5.43;2.22;;;17.80;84.00;;;;;;4935623;29;20470;-85
2021/07/18 03:00:23;;;;;;;10.00;2.33;;;17.80;84.10;;;;;;4936950;29;20032;-85
2021/07/18 03:02:49;;;;;;;6.65;2.28;;;17.80;84.10;;;;;;4936504;29;20031;-85
2021/07/18 03:05:15;;;;;;;7.40;2.50;;;17.80;84.10;;;;;;4936475;29;20380;-85
2021/07/18 03:07:42;;;;;;;5.45;2.60;;;17.70;84.10;;;;;;4936965;29;20512;-85
2021/07/18 03:10:09;;;;;;;9.65;2.63;;;17.60;84.00;;;;;;4936753;29;20024;-85
2021/07/18 03:12:35;;;;;;;8.15;2.70;;;17.60;84.10;;;;;;4936315;29;20024;-85
2021/07/18 03:15:04;;;;;;;6.32;2.30;;;17.50;84.00;;;;;;4919797;29;20042;-85
2021/07/18 03:17:30;;;;;;;7.60;2.45;;;17.50;84.10;;;;;;4919387;29;20023;-85
2021/07/18 03:19:57;;;;;;;7.40;2.50;;;17.50;84.10;;;;;;4919959;29;20464;-85
2021/07/18 03:22:24;;;;;;;5.28;2.45;;;17.30;84.00;;;;;;4919728;29;20030;-86
2021/07/18 03:24:52;;;;;;;6.88;2.30;;;17.40;84.30;;;;;;4919770;29;20063;-85
2021/07/18 03:27:23;;;;;;;7.68;2.40;;;17.40;84.10;;;;;;4936310;29;20106;-85
2021/07/18 03:29:49;;;;;;;4.30;2.20;;;17.20;84.10;;;;;;4919450;29;20028;-85
2021/07/18 03:32:14;;;;;;;6.55;2.40;;;17.30;84.20;;;;;;4919653;29;20024;-85
2021/07/18 03:34:41;;;;;;;6.30;2.30;;;17.30;84.30;;;;;;4916904;29;20077;-84
2021/07/18 03:37:09;;;;;;;8.77;2.47;;;17.20;84.30;;;;;;4918896;29;20032;-85
2021/07/18 03:39:35;;;;;;;5.72;2.60;;;17.20;84.40;;;;;;4919830;29;20067;-84
2021/07/18 03:42:07;;;;;;;7.07;2.40;;;17.30;84.40;;;;;;4919372;29;20031;-85
2021/07/18 03:44:36;;;;;;;6.80;2.42;;;17.20;84.50;;;;;;4936398;29;20028;-84
2021/07/18 03:47:08;;;;;;;7.22;2.55;;;17.20;84.40;;;;;;4919551;29;20163;-85
2021/07/18 03:49:34;;;;;;;7.53;2.20;;;17.10;84.40;;;;;;4919348;29;20030;-84
2021/07/18 03:52:00;;;;;;;6.88;2.35;;;17.10;84.60;;;;;;4919717;29;20404;-85
2021/07/18 03:54:31;;;;;;;6.32;2.33;;;17.10;84.60;;;;;;4936884;29;20036;-86
2021/07/18 03:57:02;;;;;;;6.15;2.50;;;17.10;84.60;;;;;;4936584;29;20624;-85
2021/07/18 03:59:38;;;;;;;5.88;2.22;;;17.10;84.60;;;;;;4919617;29;20115;-86
2021/07/18 04:02:23;;;;;;;;;;;;;;;;;;;;;
2021/07/18 04:04:59;;;;;;;;;;;;;;;;;;;;;
2021/07/18 04:07:33;;;;;;;4.60;2.20;;;17.10;84.80;;;;;;4936974;29;20020;-85
2021/07/18 04:10:11;;;;;;;7.80;2.30;;;17.00;84.80;;;;;;4929751;29;20016;-86
2021/07/18 04:12:51;;;;;;;6.18;2.30;;;17.10;84.90;;;;;;4958578;28;20056;-86
2021/07/18 04:15:43;;;;;;;6.68;2.50;;;17.10;84.90;;;;;;4928879;29;20051;-86
2021/07/18 04:18:27;;;;;;;9.00;2.40;;;17.10;84.90;;;;;;4923925;29;20472;-86
2021/07/18 04:21:09;;;;;;;8.25;2.30;;;17.10;84.90;;;;;;4922979;29;20070;-86
2021/07/18 04:23:52;;;;;;;7.15;2.30;;;17.10;85.00;;;;;;4922767;29;20039;-85
2021/07/18 04:26:26;;;;;;;7.95;3.05;;;17.10;85.00;;;;;;4922392;29;20036;-86
2021/07/18 04:29:19;;;;;;;15.18;7.75;;;17.10;85.00;;;;;;4939665;29;20020;-86
2021/07/18 04:31:53;;;;;;;8.23;2.90;;;17.10;85.10;;;;;;4921327;29;20078;-86
2021/07/18 04:35:02;;;;;;;6.20;2.40;;;17.10;85.10;;;;;;4922610;29;20042;-86
2021/07/18 04:37:53;;;;;;;5.60;2.50;;;17.20;85.10;;;;;;4880293;29;20025;-86
2021/07/18 04:44:21;;;;;;;8.88;2.70;;;17.10;85.10;;;;;;4861498;29;20113;-86
2021/07/18 04:47:50;;;;;;;6.80;2.40;;;17.20;85.30;;;;;;4873668;29;20048;-87
2021/07/18 04:50:22;;;;;;;8.05;2.22;;;17.20;85.20;;;;;;4903156;29;20028;-85
2021/07/18 04:52:58;;;;;;;5.60;2.40;;;17.10;85.10;;;;;;4902680;29;20035;-86
2021/07/18 04:55:48;;;;;;;13.25;4.88;;;17.20;85.20;;;;;;4901766;29;20043;-85
2021/07/18 05:05:20;;;;;;;6.68;2.50;;;17.30;85.60;;;;;;4898274;29;20041;-86
2021/07/18 05:07:55;;;;;;;7.57;2.38;;;17.30;85.60;;;;;;4901894;29;20099;-85
2021/07/18 05:10:34;;;;;;;6.65;2.33;;;17.30;85.60;;;;;;4902342;29;20091;-85
2021/07/18 05:13:00;;;;;;;8.10;2.20;;;17.30;85.60;;;;;;4902338;29;20027;-85
2021/07/18 05:15:27;;;;;;;7.15;2.47;;;17.40;85.60;;;;;;4901868;29;20449;-85
2021/07/18 05:17:55;;;;;;;6.40;2.28;;;17.50;85.70;;;;;;4902202;29;20390;-85
2021/07/18 05:20:25;;;;;;;6.53;2.47;;;17.50;85.70;;;;;;4918861;29;20099;-85
2021/07/18 05:22:51;;;;;;;29.70;22.02;;;17.50;85.70;;;;;;4902010;29;20115;-85
2021/07/18 05:25:22;;;;;;;8.00;2.60;;;17.60;85.80;;;;;;4916569;29;20092;-85
2021/07/18 05:27:53;;;;;;;5.60;2.42;;;17.60;85.80;;;;;;4901951;29;20039;-85
2021/07/18 05:30:19;;;;;;;6.63;2.50;;;17.70;85.80;;;;;;4901775;29;20025;-84
2021/07/18 05:32:47;;;;;;;6.13;2.50;;;17.70;85.80;;;;;;4901741;29;20043;-83
2021/07/18 05:35:13;;;;;;;7.65;2.40;;;17.80;85.90;;;;;;4909904;29;20408;-83
2021/07/18 05:37:38;;;;;;;4.75;2.22;;;17.80;85.80;;;;;;4937738;29;20020;-83
2021/07/18 05:40:10;;;;;;;6.20;2.50;;;17.80;85.80;;;;;;4920596;29;20036;-83
2021/07/18 05:42:39;;;;;;;6.90;2.55;;;17.80;85.70;;;;;;4920354;29;20115;-83
2021/07/18 05:45:06;;;;;;;5.38;2.50;;;17.90;85.80;;;;;;4920340;29;20476;-82
2021/07/18 05:47:34;;;;;;;5.97;2.35;;;17.90;85.80;;;;;;4937390;29;20055;-82
2021/07/18 05:50:00;;;;;;;7.70;2.78;;;17.90;85.80;;;;;;4937228;29;20031;-82
2021/07/18 05:52:26;;;;;;;6.07;2.55;;;18.00;86.00;;;;;;4956231;29;20122;-82
2021/07/18 05:54:52;;;;;;;7.25;2.60;;;18.00;85.90;;;;;;4956619;29;20043;-81
2021/07/18 05:57:18;;;;;;;9.38;2.88;;;18.10;85.90;;;;;;4939071;29;20031;-82
2021/07/18 05:59:46;;;;;;;7.57;2.88;;;18.10;85.90;;;;;;4956582;29;20035;-82
2021/07/18 06:02:12;;;;;;;5.45;2.42;;;18.10;85.90;;;;;;4955029;29;20488;-82
2021/07/18 06:04:37;;;;;;;7.45;2.90;;;18.10;85.90;;;;;;4955908;29;20062;-81
2021/07/18 06:07:03;;;;;;;6.53;2.40;;;18.20;86.10;;;;;;4956219;29;20110;-81
2021/07/18 06:09:32;;;;;;;8.02;2.70;;;18.30;86.10;;;;;;4956294;29;20027;-82
2021/07/18 06:11:57;;;;;;;7.82;2.80;;;18.20;85.80;;;;;;4956005;29;20032;-81
2021/07/18 06:14:23;;;;;;;8.63;2.85;;;18.30;85.90;;;;;;4954722;29;20047;-82
2021/07/18 06:16:48;;;;;;;6.78;2.83;;;18.40;86.20;;;;;;4956493;29;20030;-82
2021/07/18 06:19:14;;;;;;;9.10;3.22;;;18.50;86.20;;;;;;4956247;29;20058;-84
2021/07/18 06:21:40;;;;;;;9.48;2.88;;;18.50;86.20;;;;;;4954953;29;20078;-84
2021/07/18 06:24:05;;;;;;;8.07;2.70;;;18.60;86.20;;;;;;4938521;29;20035;-84
2021/07/18 06:26:32;;;;;;;6.60;2.80;;;18.60;86.00;;;;;;4956359;29;20357;-84
2021/07/18 06:28:57;;;;;;;8.48;2.95;;;18.70;86.70;;;;;;4956020;29;20023;-83
2021/07/18 06:31:23;;;;;;;9.98;3.00;;;18.80;86.80;;;;;;4956118;29;20126;-84
2021/07/18 06:33:52;;;;;;;7.57;2.97;;;18.90;86.20;;;;;;4956068;29;20034;-84
2021/07/18 06:36:18;;;;;;;9.23;3.20;;;18.90;86.10;;;;;;4952039;28;20035;-84
2021/07/18 06:38:43;;;;;;;9.20;3.03;;;19.00;86.10;;;;;;4955897;29;20024;-83
2021/07/18 06:41:09;;;;;;;8.50;3.30;;;19.00;86.00;;;;;;4954635;29;20374;-82
2021/07/18 06:43:36;;;;;;;7.82;2.78;;;19.10;85.90;;;;;;4938909;29;20066;-85
2021/07/18 06:46:04;;;;;;;7.53;2.80;;;19.10;86.00;;;;;;4939069;29;20443;-85
2021/07/18 06:48:30;;;;;;;6.63;2.90;;;19.20;86.20;;;;;;4938409;29;20024;-85
2021/07/18 06:50:57;;;;;;;8.15;2.90;;;19.20;86.60;;;;;;4930860;29;20054;-85
2021/07/18 06:53:23;;;;;;;11.23;2.90;;;19.40;86.50;;;;;;4936345;29;20038;-84
2021/07/18 06:55:52;;;;;;;8.35;3.45;;;19.50;86.30;;;;;;4936224;29;20028;-84
2021/07/18 06:58:18;;;;;;;8.15;2.90;;;19.60;86.60;;;;;;4936582;29;20028;-83
2021/07/18 07:00:44;;;;;;;9.00;3.17;;;19.50;86.30;;;;;;4936227;29;20534;-83
2021/07/18 07:03:09;;;;;;;6.00;2.65;;;19.90;86.40;;;;;;4936290;29;20420;-83
2021/07/18 07:05:35;;;;;;;7.78;3.00;;;19.90;86.30;;;;;;4936249;29;20106;-83
2021/07/18 07:08:04;;;;;;;7.47;2.70;;;20.10;86.30;;;;;;4919392;29;20083;-84
2021/07/18 07:10:30;;;;;;;8.35;3.08;;;20.20;86.50;;;;;;4936692;29;20051;-85
2021/07/18 07:12:56;;;;;;;8.05;3.17;;;20.40;86.60;;;;;;4936539;29;20067;-87
2021/07/18 07:15:24;;;;;;;7.70;3.00;;;20.50;86.40;;;;;;4926400;29;20126;-91
2021/07/18 07:18:10;;;;;;;6.88;3.05;;;20.60;85.70;;;;;;4926496;29;20060;-92
2021/07/18 07:20:58;;;;;;;9.50;3.10;;;20.70;85.70;;;;;;4923213;29;20028;-91
2021/07/18 07:34:29;;;;;;;7.05;2.80;;;20.60;84.40;;;;;;4880028;29;20485;-88
2021/07/18 07:40:31;;;;;;;7.95;3.30;;;20.60;85.00;;;;;;4878921;29;20425;-86
2021/07/18 07:43:35;;;;;;;7.72;2.90;;;20.70;84.60;;;;;;4877489;29;20043;-87
2021/07/18 07:46:38;;;;;;;;;;;;;;;;;;;;;
2021/07/18 07:53:27;;;;;;;8.55;2.80;;;20.90;85.10;;;;;;4825143;29;20047;-87
2021/07/18 08:02:35;;;;;;;5.63;2.50;;;21.10;84.50;;;;;;4826277;29;20078;-94
2021/07/18 08:05:03;;;;;;;8.52;3.20;;;21.20;84.40;;;;;;4863564;29;20043;-90
2021/07/18 08:08:12;;;;;;;7.03;2.63;;;21.30;84.60;;;;;;4865764;29;20060;-89
2021/07/18 08:12:19;;;;;;;;;;;;;;;;;;;;;
2021/07/18 08:14:43;;;;;;;;;;;;;;;;;;;;;
2021/07/18 08:20:17;;;;;;;5.30;2.35;;;21.40;84.30;;;;;;4879621;29;20050;-91
2021/07/18 08:23:06;;;;;;;8.88;2.90;;;21.50;84.30;;;;;;4885841;29;20119;-90
2021/07/18 08:25:33;;;;;;;10.13;2.75;;;21.50;83.90;;;;;;4928744;29;20023;-89
2021/07/18 08:34:55;;;;;;;7.68;2.90;;;21.90;84.20;;;;;;4881471;29;20047;-86
2021/07/18 08:38:07;;;;;;;11.38;2.90;;;21.90;83.60;;;;;;4907871;29;20032;-91
2021/07/18 08:40:36;;;;;;;7.72;2.80;;;22.00;84.10;;;;;;4905721;29;20043;-89
2021/07/18 08:43:08;;;;;;;8.57;3.00;;;22.10;84.10;;;;;;4937566;29;20032;-87
2021/07/18 08:45:34;;;;;;;7.15;2.88;;;22.20;83.20;;;;;;4922973;29;20393;-88
2021/07/18 08:48:00;;;;;;;5.93;2.67;;;22.20;83.10;;;;;;4924178;29;20042;-88
2021/07/18 08:50:28;;;;;;;7.65;3.08;;;22.30;83.90;;;;;;4941190;29;20059;-88
2021/07/18 08:59:12;;;;;;;6.78;2.85;;;23.00;84.80;;;;;;5256807;23;20063;-87
2021/07/18 09:02:20;;;;;;;6.55;2.55;;;23.20;84.40;;;;;;4957832;29;20034;-87
2021/07/18 09:04:46;;;;;;;5.93;2.55;;;23.40;83.80;;;;;;4868897;29;20064;-95
2021/07/18 09:07:18;;;;;;;6.28;2.58;;;23.50;83.20;;;;;;4884390;29;20115;-94
2021/07/18 09:09:45;;;;;;;5.78;2.53;;;23.60;83.10;;;;;;4930169;29;20039;-92
2021/07/18 09:12:14;;;;;;;7.57;2.42;;;23.60;82.80;;;;;;4941694;29;20034;-95
2021/07/18 09:14:49;;;;;;;6.00;2.53;;;23.70;82.80;;;;;;4941601;29;20031;-93
2021/07/18 09:17:25;;;;;;;6.38;2.60;;;23.70;82.30;;;;;;4940894;29;20118;-92
2021/07/18 09:19:53;;;;;;;7.20;3.05;;;23.80;82.30;;;;;;4943614;29;20078;-92
2021/07/18 09:22:23;;;;;;;8.40;2.85;;;23.80;81.70;;;;;;4945786;29;20122;-92
2021/07/18 09:24:50;;;;;;;6.63;2.50;;;23.90;82.40;;;;;;4944091;29;20037;-92
2021/07/18 09:27:22;;;;;;;9.38;2.90;;;24.00;82.20;;;;;;4946002;29;20027;-91
2021/07/18 09:30:04;;;;;;;6.45;2.67;;;24.00;81.70;;;;;;4946041;29;20027;-91
2021/07/18 09:32:34;;;;;;;7.45;2.70;;;24.10;81.60;;;;;;4944974;29;20034;-92
2021/07/18 09:35:13;;;;;;;6.85;2.80;;;24.20;81.80;;;;;;4944803;29;20062;-93
2021/07/18 09:37:44;;;;;;;8.60;2.90;;;24.30;81.10;;;;;;4945391;29;20068;-91
2021/07/18 09:40:18;;;;;;;8.07;3.08;;;24.50;81.40;;;;;;4944163;29;20062;-92
2021/07/18 09:42:52;;;;;;;5.43;2.53;;;24.60;80.50;;;;;;4944303;29;20023;-92
2021/07/18 09:45:22;;;;;;;;;;;24.80;81.10;;;;;;4950271;29;20031;-92
2021/07/18 09:47:55;;;;;;;6.78;2.55;;;24.80;80.90;;;;;;4952733;29;20028;-93
2021/07/18 09:50:46;;;;;;;4.60;2.30;;;24.70;79.40;;;;;;4951823;29;20054;-92
2021/07/18 09:53:19;;;;;;;6.70;2.58;;;24.60;79.80;;;;;;4946369;29;20027;-92
2021/07/18 09:56:06;;;;;;;6.78;2.90;;;24.60;79.60;;;;;;4943471;29;20038;-92
2021/07/18 09:58:35;;;;;;;7.95;2.75;;;24.70;80.40;;;;;;4943477;29;20043;-92
2021/07/18 10:01:09;;;;;;;5.85;2.60;;;24.80;80.60;;;;;;4942624;29;20031;-92
2021/07/18 10:03:44;;;;;;;6.07;2.63;;;25.10;80.60;;;;;;4943422;29;20020;-93
2021/07/18 10:06:11;;;;;;;5.80;2.60;;;25.20;80.40;;;;;;4944691;29;20031;-92
2021/07/18 10:08:45;;;;;;;5.90;2.60;;;25.40;80.60;;;;;;4944409;29;20059;-93
2021/07/18 10:11:17;;;;;;;7.28;2.58;;;25.60;79.90;;;;;;4942826;29;20031;-93
2021/07/18 10:13:51;;;;;;;7.47;3.05;;;25.70;79.80;;;;;;4943008;29;20032;-92
2021/07/18 10:16:21;;;;;;;8.02;2.70;;;25.60;77.70;;;;;;4943502;29;20106;-92
2021/07/18 10:18:50;;;;;;;4.70;2.42;;;25.60;79.20;;;;;;4960884;29;20090;-91
2021/07/18 10:21:22;;;;;;;8.07;2.50;;;25.80;79.30;;;;;;4943552;29;20034;-93
2021/07/18 10:23:51;;;;;;;4.70;2.17;;;25.80;78.90;;;;;;4943370;29;20034;-93
2021/07/18 10:26:33;;;;;;;8.18;3.03;;;25.90;78.70;;;;;;4943087;29;20031;-92
2021/07/18 10:29:01;;;;;;;6.82;2.80;;;25.90;78.80;;;;;;4943354;29;20031;-93
2021/07/18 10:31:43;;;;;;;6.75;2.70;;;26.00;78.50;;;;;;4944392;29;20035;-92
2021/07/18 10:34:17;;;;;;;8.43;2.70;;;26.10;78.80;;;;;;4943435;29;20054;-93
2021/07/18 10:36:44;;;;;;;7.57;2.83;;;26.20;78.80;;;;;;4942286;29;20538;-94
2021/07/18 10:39:31;;;;;;;5.75;2.60;;;26.40;79.00;;;;;;4943090;29;20086;-92
2021/07/18 10:42:01;;;;;;;6.45;2.70;;;26.50;78.30;;;;;;4944082;29;20034;-93
2021/07/18 10:44:42;;;;;;;6.97;2.72;;;26.60;78.10;;;;;;4944365;29;20041;-94
2021/07/18 10:47:08;;;;;;;6.13;2.70;;;26.80;78.30;;;;;;4945181;29;20476;-93
2021/07/18 10:50:07;;;;;;;6.88;2.70;;;26.90;77.30;;;;;;4943767;29;20035;-92
2021/07/18 10:52:34;;;;;;;7.80;2.85;;;27.10;77.40;;;;;;4943624;29;20088;-91
2021/07/18 10:55:04;;;;;;;7.68;3.00;;;27.20;76.80;;;;;;4944479;29;20039;-93
2021/07/18 10:57:36;;;;;;;7.22;2.70;;;27.40;76.80;;;;;;4943749;29;20085;-92
2021/07/18 11:00:25;;;;;;;6.88;2.78;;;27.50;76.50;;;;;;4960262;29;20164;-92
2021/07/18 11:03:06;;;;;;;7.57;2.80;;;27.70;76.80;;;;;;4943759;29;20472;-94
2021/07/18 11:06:19;;;;;;;8.65;3.03;;;27.80;76.00;;;;;;4944421;29;20027;-92
2021/07/18 11:09:18;;;;;;;7.70;2.70;;;28.00;76.10;;;;;;4926892;29;20439;-93
2021/07/18 11:12:20;;;;;;;6.45;2.70;;;28.20;75.80;;;;;;4950207;29;20023;-92
2021/07/18 11:15:33;;;;;;;6.25;2.72;;;28.40;76.00;;;;;;4965890;29;20094;-89
2021/07/18 11:18:18;;;;;;;7.25;3.00;;;29.00;77.70;;;;;;4948070;29;20016;-91
2021/07/18 11:20:48;;;;;;;7.05;3.38;;;29.50;77.10;;;;;;4951283;29;20027;-92
2021/07/18 11:23:47;;;;;;;8.10;3.28;;;29.90;75.50;;;;;;4946994;29;20121;-93
2021/07/18 11:26:32;;;;;;;;;;;;;;;;;;;;;
2021/07/18 11:29:04;;;;;;;5.47;2.88;;;31.10;76.10;;;;;;4964916;29;20095;-92
2021/07/18 11:31:41;;;;;;;5.85;2.80;;;31.80;75.60;;;;;;4947377;29;20114;-92
2021/07/18 11:34:43;;;;;;;6.75;3.22;;;32.40;75.30;;;;;;4946497;29;20024;-92
2021/07/18 11:37:09;;;;;;;7.88;3.30;;;33.20;74.50;;;;;;4944356;29;20032;-92
2021/07/18 11:39:44;;;;;;;6.93;2.95;;;33.80;72.40;;;;;;4927740;29;20028;-92
2021/07/18 11:42:15;;;;;;;6.75;2.92;;;34.30;72.20;;;;;;4912770;29;20064;-91
2021/07/18 11:44:49;;;;;;;7.75;3.50;;;34.70;71.90;;;;;;4929811;29;20070;-91
2021/07/18 11:47:23;;;;;;;6.55;3.22;;;35.10;71.80;;;;;;4929540;29;20070;-92
2021/07/18 11:49:51;;;;;;;10.07;5.05;;;35.50;71.10;;;;;;4932264;29;20023;-91
2021/07/18 11:52:22;;;;;;;8.95;4.03;;;36.00;71.40;;;;;;4936011;29;20060;-91
2021/07/18 11:54:47;;;;;;;9.32;4.10;;;36.60;69.10;;;;;;4920626;29;20043;-92
2021/07/18 11:57:15;;;;;;;8.35;4.07;;;37.30;69.90;;;;;;4932959;29;20034;-92
2021/07/18 11:59:55;;;;;;;10.00;4.53;;;37.80;67.50;;;;;;4907961;29;20075;-91
2021/07/18 12:02:25;;;;;;;8.70;4.22;;;38.20;66.70;;;;;;4907621;29;20028;-91
2021/07/18 12:05:07;;;;;;;9.90;4.28;;;38.90;65.30;;;;;;4908439;29;20135;-93
2021/07/18 12:07:36;;;;;;;9.05;4.75;;;39.40;66.10;;;;;;4910351;29;20076;-92
2021/07/18 12:10:19;;;;;;;8.75;5.13;;;39.80;62.40;;;;;;4916505;29;20127;-93
2021/07/18 12:12:54;;;;;;;8.45;4.90;;;40.10;58.60;;;;;;4941423;29;20477;-93
2021/07/18 12:15:26;;;;;;;9.18;4.95;;;40.30;57.90;;;;;;4941959;29;20404;-92
2021/07/18 12:18:03;;;;;;;8.52;5.07;;;40.70;56.90;;;;;;4941163;29;20034;-93
2021/07/18 12:20:31;;;;;;;10.18;4.90;;;41.30;57.30;;;;;;4941367;29;20080;-93
2021/07/18 12:23:30;;;;;;;;;;;;;;;;;;;;;
2021/07/18 12:25:57;;;;;;;11.30;4.30;;;42.70;58.10;;;;;;4924868;29;20123;-92
2021/07/18 12:28:23;;;;;;;8.57;4.78;;;43.10;56.20;;;;;;4941283;29;20116;-92
2021/07/18 12:31:06;;;;;;;9.70;4.28;;;43.40;53.60;;;;;;4941318;29;20048;-94
2021/07/18 12:33:40;;;;;;;8.35;4.53;;;43.90;56.10;;;;;;4925140;29;20040;-90
2021/07/18 12:36:11;;;;;;;10.13;4.75;;;44.10;54.20;;;;;;4921775;29;20044;-93
2021/07/18 12:38:43;;;;;;;8.88;4.78;;;44.20;55.50;;;;;;4939894;29;20024;-93
2021/07/18 12:41:08;;;;;;;8.65;4.53;;;44.50;53.80;;;;;;4891851;29;20048;-92
2021/07/18 12:43:39;;;;;;;8.10;4.60;;;44.50;52.10;;;;;;4903280;29;20060;-92
2021/07/18 12:46:18;;;;;;;9.65;4.85;;;44.90;53.80;;;;;;4904375;29;20031;-93
2021/07/18 12:48:47;;;;;;;8.95;5.35;;;45.50;53.60;;;;;;4904412;29;20473;-92
2021/07/18 12:51:18;;;;;;;9.88;5.00;;;46.10;52.80;;;;;;4903384;29;20028;-93
2021/07/18 12:53:54;;;;;;;8.70;5.28;;;46.60;52.40;;;;;;4903560;29;20135;-92
2021/07/18 12:56:20;;;;;;;8.63;5.32;;;47.20;51.90;;;;;;4902927;29;20060;-89
2021/07/18 12:58:50;;;;;;;9.10;4.70;;;47.60;50.90;;;;;;4903624;29;20489;-93
2021/07/18 13:01:18;;;;;;;7.82;4.68;;;48.20;50.10;;;;;;4903574;29;20358;-93
2021/07/18 13:03:54;;;;;;;8.88;5.00;;;48.30;48.80;;;;;;4903549;29;20036;-92
2021/07/18 13:06:24;;;;;;;9.05;5.25;;;48.30;48.10;;;;;;4904543;29;20036;-93
2021/07/18 13:08:58;;;;;;;8.55;5.30;;;48.30;47.10;;;;;;4904502;29;20052;-90
2021/07/18 13:11:44;;;;;;;8.63;5.13;;;48.50;47.40;;;;;;4904327;29;20071;-90
2021/07/18 13:14:37;;;;;;;8.63;5.22;;;48.70;46.90;;;;;;4903123;29;20116;-93
2021/07/18 13:17:23;;;;;;;8.98;5.82;;;48.80;46.60;;;;;;4902212;29;20497;-92
2021/07/18 13:20:03;;;;;;;9.77;6.13;;;48.80;43.00;;;;;;4903513;29;20521;-92
2021/07/18 13:22:31;;;;;;;9.93;6.65;;;49.30;43.60;;;;;;4903749;29;20036;-92
2021/07/18 13:25:04;;;;;;;9.43;5.72;;;49.90;42.10;;;;;;4905331;29;20066;-91
2021/07/18 13:27:37;;;;;;;9.57;5.93;;;50.00;42.00;;;;;;4905079;29;20037;-91
2021/07/18 13:30:10;;;;;;;8.98;5.70;;;50.10;40.80;;;;;;4905190;29;20033;-91
2021/07/18 13:32:43;;;;;;;9.30;5.78;;;50.40;40.70;;;;;;4904005;29;20025;-91
2021/07/18 13:35:17;;;;;;;8.55;5.32;;;50.80;39.70;;;;;;4906479;29;20080;-92
2021/07/18 13:37:59;;;;;;;7.60;4.97;;;51.30;38.40;;;;;;4892514;29;20040;-91
2021/07/18 13:40:27;;;;;;;8.82;5.13;;;51.30;36.40;;;;;;4893733;29;20035;-93
2021/07/18 13:43:14;;;;;;;7.78;4.32;;;51.50;36.90;;;;;;4895140;29;20092;-91
2021/07/18 13:46:00;;;;;;;11.05;4.97;;;51.40;35.70;;;;;;4887741;29;20067;-91
2021/07/18 13:48:38;;;;;;;9.07;5.03;;;51.50;35.90;;;;;;4885826;29;20029;-92
2021/07/18 13:51:09;;;;;;;9.38;5.93;;;51.60;35.60;;;;;;4887512;29;20080;-92
2021/07/18 13:53:39;;;;;;;8.77;5.80;;;52.00;34.80;;;;;;4872807;29;20076;-92
2021/07/18 13:56:05;;;;;;;8.95;5.70;;;52.60;33.70;;;;;;4887525;29;20052;-91
2021/07/18 13:58:30;;;;;;;8.63;5.47;;;52.90;33.00;;;;;;4886920;29;20060;-91
2021/07/18 14:01:02;;;;;;;8.73;5.50;;;52.70;32.00;;;;;;4887203;29;20040;-92
2021/07/18 14:03:35;;;;;;;8.70;5.28;;;52.40;32.00;;;;;;4886481;29;20044;-91
2021/07/18 14:06:15;;;;;;;8.52;5.57;;;52.40;32.20;;;;;;4886252;29;20066;-91
2021/07/18 14:08:50;;;;;;;10.93;5.90;;;52.80;32.40;;;;;;4886648;29;20080;-91
2021/07/18 14:11:16;;;;;;;9.25;6.03;;;53.00;31.30;;;;;;4886335;29;20079;-91
2021/07/18 14:13:44;;;;;;;8.85;5.82;;;52.90;30.30;;;;;;4885796;29;20465;-91
2021/07/18 14:16:13;;;;;;;8.35;5.80;;;52.90;29.60;;;;;;4888322;29;20120;-92
2021/07/18 14:18:43;;;;;;;8.63;5.75;;;52.90;28.90;;;;;;4888063;29;20044;-92
2021/07/18 14:21:16;;;;;;;8.10;5.25;;;53.40;29.20;;;;;;4887607;29;20033;-92
2021/07/18 14:24:03;;;;;;;8.88;5.30;;;53.60;28.80;;;;;;4888446;29;20031;-92
2021/07/18 14:26:30;;;;;;;8.55;4.75;;;53.60;28.60;;;;;;4886163;29;20029;-93
2021/07/18 14:29:09;;;;;;;8.20;5.07;;;53.80;28.10;;;;;;4886771;29;20055;-93
2021/07/18 14:31:36;;;;;;;8.20;5.20;;;53.70;27.60;;;;;;4888030;29;20028;-93
2021/07/18 14:34:04;;;;;;;8.10;5.18;;;53.80;27.50;;;;;;4887184;29;20060;-91
2021/07/18 14:36:33;;;;;;;8.38;5.00;;;54.00;27.60;;;;;;4872888;29;20033;-91
2021/07/18 14:38:59;;;;;;;8.30;5.03;;;54.20;27.40;;;;;;4867947;29;20105;-91
2021/07/18 14:41:25;;;;;;;8.18;5.30;;;54.40;27.00;;;;;;4867434;29;20471;-91
2021/07/18 14:43:51;;;;;;;10.00;5.28;;;54.40;26.50;;;;;;4869095;29;20058;-91
2021/07/18 14:46:17;;;;;;;8.80;5.25;;;54.50;26.30;;;;;;4869085;29;20036;-91
2021/07/18 14:48:43;;;;;;;8.60;4.90;;;54.60;26.30;;;;;;4868754;29;20036;-91
2021/07/18 14:51:09;;;;;;;9.05;5.25;;;54.60;25.80;;;;;;4868167;29;20033;-92
2021/07/18 14:53:34;;;;;;;7.20;4.68;;;54.60;25.50;;;;;;4868716;29;20054;-91
2021/07/18 14:56:00;;;;;;;7.65;4.78;;;54.70;25.20;;;;;;4869351;29;20045;-93
2021/07/18 14:58:31;;;;;;;7.93;4.90;;;54.90;25.50;;;;;;4876869;29;20056;-93
2021/07/18 15:00:56;;;;;;;8.43;4.85;;;55.10;25.30;;;;;;4887777;29;20047;-92
2021/07/18 15:03:24;;;;;;;8.68;5.07;;;54.90;25.10;;;;;;4888824;29;20036;-92
2021/07/18 15:05:53;;;;;;;11.90;5.28;;;55.20;25.40;;;;;;4884438;29;20120;-91
2021/07/18 15:08:21;;;;;;;8.57;4.32;;;55.60;24.80;;;;;;4888529;29;20063;-91
2021/07/18 15:10:48;;;;;;;7.78;4.57;;;55.50;24.40;;;;;;4888778;29;20024;-91
2021/07/18 15:13:14;;;;;;;7.57;4.30;;;55.70;24.50;;;;;;4903136;29;20028;-92
2021/07/18 15:15:39;;;;;;;6.53;4.10;;;55.50;23.90;;;;;;4887620;29;20064;-92
2021/07/18 15:18:05;;;;;;;7.32;3.92;;;55.20;24.00;;;;;;4887599;29;20052;-92